Time;durP1;ratioP1;P1;durP2;ratioP2;P2;SDS_P1;SDS_P2;PMS_P1;PMS_P2;Temp;Humidity;BMP_temperature;BMP_pressure;BME280_temperature;BME280_humidity;BME280_pressure;Samples;Min_cycle;Max_cycle;Signal;HPM_P1;HPM_P2
2022/04/15 00:01:40;;;;;;;4.45;3.80;;;20.90;55.20;;;;;;5033652;28;20575;-71
2022/04/15 00:04:06;;;;;;;5.28;3.47;;;20.90;55.20;;;;;;5033549;28;20195;-71
2022/04/15 00:06:33;;;;;;;3.50;3.20;;;20.90;55.20;;;;;;5033988;28;20596;-71
2022/04/15 00:08:59;;;;;;;3.80;3.50;;;20.90;55.20;;;;;;5049722;28;20736;-70
2022/04/15 00:11:25;;;;;;;4.95;3.35;;;20.90;55.20;;;;;;5034750;28;20195;-70
2022/04/15 00:13:51;;;;;;;4.35;3.70;;;20.90;55.10;;;;;;5034291;28;20620;-70
2022/04/15 00:16:17;;;;;;;3.75;3.03;;;20.90;55.10;;;;;;5035168;28;20237;-71
2022/04/15 00:18:43;;;;;;;3.63;3.25;;;20.90;55.10;;;;;;5036341;28;20293;-71
2022/04/15 00:21:10;;;;;;;3.17;2.88;;;20.90;55.10;;;;;;5036870;28;20190;-71
2022/04/15 00:23:36;;;;;;;4.43;2.95;;;20.90;55.10;;;;;;5034342;28;20582;-71
2022/04/15 00:26:03;;;;;;;3.50;3.15;;;20.90;55.10;;;;;;5034251;28;20176;-71
2022/04/15 00:28:29;;;;;;;3.58;2.92;;;20.90;55.10;;;;;;5050845;28;20682;-70
2022/04/15 00:30:55;;;;;;;3.28;2.97;;;20.90;55.10;;;;;;5035209;28;20209;-71
2022/04/15 00:33:22;;;;;;;3.38;2.83;;;20.90;55.10;;;;;;5034578;28;20187;-70
2022/04/15 00:35:47;;;;;;;2.92;2.70;;;20.90;55.00;;;;;;5034779;28;20194;-70
2022/04/15 00:38:13;;;;;;;3.28;2.95;;;20.90;55.00;;;;;;5035861;28;20207;-70
2022/04/15 00:40:39;;;;;;;3.10;2.80;;;20.90;55.60;;;;;;5034587;28;20221;-70
2022/04/15 00:43:05;;;;;;;3.50;2.65;;;20.90;55.00;;;;;;5034067;28;20190;-70
2022/04/15 00:45:31;;;;;;;2.65;2.45;;;20.90;55.00;;;;;;5032477;28;20195;-70
2022/04/15 00:48:01;;;;;;;3.00;2.75;;;20.90;55.10;;;;;;5032682;28;20239;-70
2022/04/15 00:50:33;;;;;;;3.25;2.95;;;20.90;55.00;;;;;;5032626;28;20198;-70
2022/04/15 00:53:07;;;;;;;3.47;3.17;;;20.90;55.00;;;;;;5034320;28;20167;-70
2022/04/15 00:55:33;;;;;;;4.38;2.97;;;20.90;55.00;;;;;;5033905;28;20270;-71
2022/04/15 00:58:02;;;;;;;3.95;3.33;;;20.90;55.10;;;;;;5034151;28;20187;-70
2022/04/15 01:00:31;;;;;;;4.03;3.20;;;20.90;55.10;;;;;;5032913;28;20290;-70
2022/04/15 01:03:00;;;;;;;3.20;2.90;;;20.90;55.00;;;;;;5033819;28;20180;-70
2022/04/15 01:05:27;;;;;;;3.45;3.15;;;20.90;55.00;;;;;;5051597;28;20718;-70
2022/04/15 01:07:56;;;;;;;4.50;2.97;;;20.90;55.00;;;;;;5036736;28;20215;-71
2022/04/15 01:10:25;;;;;;;4.25;2.92;;;20.90;55.00;;;;;;5033830;28;20192;-70
2022/04/15 01:12:58;;;;;;;2.97;2.55;;;20.90;55.00;;;;;;5053460;28;20191;-71
2022/04/15 01:15:27;;;;;;;3.17;2.55;;;20.90;55.00;;;;;;5037677;28;20207;-70
2022/04/15 01:17:54;;;;;;;3.00;2.80;;;20.80;54.90;;;;;;5053208;28;20187;-70
2022/04/15 01:20:20;;;;;;;3.38;2.67;;;20.80;54.90;;;;;;5036639;28;20180;-70
2022/04/15 01:23:02;;;;;;;2.90;2.70;;;20.90;55.00;;;;;;5036347;28;20183;-70
2022/04/15 01:25:27;;;;;;;3.25;2.65;;;20.90;55.00;;;;;;5037704;28;20193;-70
2022/04/15 01:27:53;;;;;;;3.78;2.92;;;20.80;54.90;;;;;;5054183;28;20215;-70
2022/04/15 01:30:21;;;;;;;3.10;2.80;;;20.90;55.00;;;;;;5036345;28;20179;-70
2022/04/15 01:32:49;;;;;;;2.92;2.67;;;20.80;54.90;;;;;;5036344;28;20246;-70
2022/04/15 01:35:18;;;;;;;3.08;2.88;;;20.90;55.00;;;;;;5037349;28;20182;-70
2022/04/15 01:37:47;;;;;;;3.03;2.83;;;20.90;55.00;;;;;;5037420;28;20183;-71
2022/04/15 01:40:15;;;;;;;3.47;2.78;;;20.90;55.00;;;;;;5033072;28;20200;-71
2022/04/15 01:42:43;;;;;;;3.20;2.72;;;20.80;54.90;;;;;;5035764;28;20237;-71
2022/04/15 01:45:11;;;;;;;3.33;3.03;;;20.80;54.90;;;;;;5036700;28;20226;-70
2022/04/15 01:47:37;;;;;;;2.83;2.63;;;20.80;54.80;;;;;;5053026;28;20227;-70
2022/04/15 01:50:06;;;;;;;3.03;2.40;;;20.90;55.00;;;;;;5037430;28;20211;-70
2022/04/15 01:52:32;;;;;;;3.25;2.60;;;20.80;54.90;;;;;;5053454;28;20183;-71
2022/04/15 01:54:59;;;;;;;3.33;2.63;;;20.80;54.80;;;;;;5036589;28;20186;-70
2022/04/15 01:57:25;;;;;;;2.60;2.40;;;20.80;54.80;;;;;;5037887;28;20187;-70
2022/04/15 01:59:51;;;;;;;2.55;2.33;;;20.80;54.80;;;;;;5035801;28;20213;-71
2022/04/15 02:02:16;;;;;;;2.70;2.50;;;20.80;54.80;;;;;;5035752;28;20222;-70
2022/04/15 02:04:42;;;;;;;2.83;2.63;;;20.80;54.80;;;;;;5035940;28;20219;-70
2022/04/15 02:07:08;;;;;;;2.60;2.40;;;20.80;54.80;;;;;;5052793;28;20211;-71
2022/04/15 02:09:34;;;;;;;2.47;2.25;;;20.80;54.80;;;;;;5035544;28;20279;-70
2022/04/15 02:12:00;;;;;;;3.22;2.40;;;20.80;54.80;;;;;;5035601;28;20180;-71
2022/04/15 02:14:26;;;;;;;2.92;2.67;;;20.80;54.80;;;;;;5035747;28;20223;-71
2022/04/15 02:16:53;;;;;;;3.00;2.60;;;20.80;54.80;;;;;;5035933;28;20191;-71
2022/04/15 02:19:23;;;;;;;3.38;3.08;;;20.80;54.80;;;;;;5035894;28;20203;-70
2022/04/15 02:21:50;;;;;;;3.40;3.03;;;20.80;54.80;;;;;;5036333;28;20187;-70
2022/04/15 02:24:16;;;;;;;3.58;3.28;;;20.80;54.80;;;;;;5037696;28;20183;-71
2022/04/15 02:26:42;;;;;;;3.47;3.17;;;20.80;54.80;;;;;;5036426;28;20207;-70
2022/04/15 02:29:08;;;;;;;3.70;3.40;;;20.80;54.80;;;;;;5034820;28;20203;-71
2022/04/15 02:31:34;;;;;;;3.83;3.33;;;20.80;54.80;;;;;;5034846;28;20175;-70
2022/04/15 02:34:00;;;;;;;3.40;3.10;;;20.80;54.80;;;;;;5034545;28;20179;-70
2022/04/15 02:36:26;;;;;;;3.50;3.20;;;20.80;54.80;;;;;;5034255;28;20550;-71
2022/04/15 02:38:52;;;;;;;3.08;2.78;;;20.80;54.80;;;;;;5032329;28;20215;-70
2022/04/15 02:41:18;;;;;;;3.00;2.72;;;20.80;54.80;;;;;;5030502;28;20195;-70
2022/04/15 02:43:44;;;;;;;2.80;2.60;;;20.80;54.80;;;;;;5031625;28;20198;-71
2022/04/15 02:46:12;;;;;;;3.20;2.70;;;20.80;54.80;;;;;;5034323;28;20187;-71
2022/04/15 02:48:38;;;;;;;3.22;2.92;;;20.80;54.80;;;;;;5034226;28;20207;-71
2022/04/15 02:51:04;;;;;;;3.38;3.00;;;20.80;54.80;;;;;;5035191;28;20204;-71
2022/04/15 02:53:31;;;;;;;3.15;2.85;;;20.80;54.80;;;;;;5034100;28;20180;-71
2022/04/15 02:55:57;;;;;;;3.60;2.78;;;20.80;54.80;;;;;;5033888;28;20187;-70
2022/04/15 02:58:24;;;;;;;3.08;2.78;;;20.80;54.80;;;;;;5033679;28;20209;-70
2022/04/15 03:00:50;;;;;;;3.05;2.78;;;20.70;54.70;;;;;;5030677;28;20299;-71
2022/04/15 03:03:16;;;;;;;3.72;2.83;;;20.80;54.80;;;;;;5014070;28;20212;-70
2022/04/15 03:05:43;;;;;;;3.67;3.13;;;20.80;54.80;;;;;;5014379;28;20223;-71
2022/04/15 03:08:09;;;;;;;4.07;3.50;;;20.80;54.80;;;;;;4998362;28;20328;-70
2022/04/15 03:10:36;;;;;;;3.13;2.83;;;20.80;54.80;;;;;;5014521;28;20215;-71
2022/04/15 03:13:02;;;;;;;3.95;3.08;;;20.70;55.30;;;;;;5022423;28;20187;-71
2022/04/15 03:15:28;;;;;;;3.33;3.03;;;20.70;54.70;;;;;;5015021;28;20179;-71
2022/04/15 03:17:54;;;;;;;3.03;2.70;;;20.80;54.80;;;;;;5015601;28;20192;-71
2022/04/15 03:20:21;;;;;;;3.47;3.17;;;20.80;54.80;;;;;;5014591;28;20227;-70
2022/04/15 03:22:47;;;;;;;3.75;3.28;;;20.80;54.80;;;;;;5014341;28;20210;-71
2022/04/15 03:25:17;;;;;;;3.20;2.90;;;20.70;54.70;;;;;;4998334;28;20184;-71
2022/04/15 03:27:46;;;;;;;2.83;2.63;;;20.70;54.70;;;;;;5013478;28;20208;-71
2022/04/15 03:30:14;;;;;;;3.10;2.80;;;20.70;54.70;;;;;;5014179;28;20211;-71
2022/04/15 03:32:47;;;;;;;3.05;2.75;;;20.70;54.70;;;;;;5013998;28;20180;-71
2022/04/15 03:35:16;;;;;;;2.72;2.50;;;20.70;54.70;;;;;;5014003;28;20184;-71
2022/04/15 03:37:42;;;;;;;2.83;2.60;;;20.70;54.70;;;;;;5014031;28;20254;-71
2022/04/15 03:40:08;;;;;;;2.58;2.38;;;20.80;54.80;;;;;;5013519;28;20187;-71
2022/04/15 03:42:44;;;;;;;5.40;2.95;;;20.70;54.70;;;;;;5029499;28;20654;-71
2022/04/15 03:45:14;;;;;;;2.72;2.47;;;20.70;54.70;;;;;;5014875;28;20203;-71
2022/04/15 03:47:42;;;;;;;3.42;2.95;;;20.70;54.70;;;;;;5030797;28;20208;-70
2022/04/15 03:50:10;;;;;;;2.47;2.28;;;20.70;54.70;;;;;;5031547;23;20237;-71
2022/04/15 03:52:44;;;;;;;3.35;2.80;;;20.70;54.70;;;;;;4992244;28;20188;-71
2022/04/15 03:55:18;;;;;;;2.63;2.40;;;20.70;54.70;;;;;;4992796;28;20267;-71
2022/04/15 03:57:45;;;;;;;4.13;3.10;;;20.70;54.70;;;;;;4960539;28;20184;-71
2022/04/15 04:00:14;;;;;;;3.33;2.95;;;20.70;54.70;;;;;;4993316;28;20201;-71
2022/04/15 04:02:44;;;;;;;2.88;2.63;;;20.70;54.70;;;;;;4992265;28;20188;-71
2022/04/15 04:05:10;;;;;;;2.88;2.58;;;20.70;54.70;;;;;;4992303;28;20193;-71
2022/04/15 04:07:37;;;;;;;2.72;2.53;;;20.70;54.70;;;;;;4992257;28;20252;-71
2022/04/15 04:10:04;;;;;;;2.33;2.13;;;20.70;54.70;;;;;;4992119;28;20208;-71
2022/04/15 04:12:34;;;;;;;2.53;2.28;;;20.70;54.70;;;;;;4985040;28;20193;-71
2022/04/15 04:15:02;;;;;;;2.38;2.20;;;20.70;54.70;;;;;;5008700;28;20199;-71
2022/04/15 04:17:28;;;;;;;2.60;2.40;;;20.70;54.70;;;;;;4992013;28;20199;-71
2022/04/15 04:19:53;;;;;;;2.97;2.45;;;20.70;54.60;;;;;;5008374;28;20208;-71
2022/04/15 04:22:19;;;;;;;2.63;2.40;;;20.70;54.70;;;;;;5008632;28;20188;-71
2022/04/15 04:24:45;;;;;;;2.80;2.60;;;20.70;54.60;;;;;;5008240;28;20184;-72
2022/04/15 04:27:11;;;;;;;3.17;2.45;;;20.70;54.70;;;;;;4991859;28;20264;-71
2022/04/15 04:29:36;;;;;;;2.63;2.40;;;20.70;54.60;;;;;;4980380;28;20209;-71
2022/04/15 04:32:02;;;;;;;2.47;2.22;;;20.70;54.70;;;;;;4992308;28;20177;-71
2022/04/15 04:34:28;;;;;;;2.75;2.25;;;20.70;54.60;;;;;;4976120;28;20279;-71
2022/04/15 04:36:54;;;;;;;2.70;2.50;;;20.70;54.60;;;;;;4991878;28;20284;-71
2022/04/15 04:39:21;;;;;;;3.03;2.72;;;20.70;54.60;;;;;;4991080;28;20220;-72
2022/04/15 04:41:47;;;;;;;2.60;2.40;;;20.70;54.70;;;;;;4967482;28;20569;-71
2022/04/15 04:44:12;;;;;;;2.58;2.38;;;20.70;54.60;;;;;;4972450;28;20181;-69
2022/04/15 04:46:38;;;;;;;2.72;2.53;;;20.70;54.60;;;;;;4966785;28;20216;-72
2022/04/15 04:49:04;;;;;;;3.17;2.65;;;20.70;54.70;;;;;;4972137;28;20304;-71
2022/04/15 04:51:30;;;;;;;2.78;2.58;;;20.70;54.70;;;;;;4972634;28;20289;-71
2022/04/15 04:53:56;;;;;;;2.75;2.55;;;20.70;54.60;;;;;;4956107;28;20182;-71
2022/04/15 04:56:22;;;;;;;2.92;2.63;;;20.70;54.60;;;;;;4957546;28;20185;-71
2022/04/15 04:58:47;;;;;;;2.88;2.67;;;20.70;54.60;;;;;;4972397;28;20222;-71
2022/04/15 05:01:13;;;;;;;2.67;2.47;;;20.70;54.70;;;;;;4972267;28;20194;-71
2022/04/15 05:03:39;;;;;;;2.70;2.50;;;20.70;54.60;;;;;;4956249;28;20232;-72
2022/04/15 05:06:04;;;;;;;2.70;2.50;;;20.70;54.60;;;;;;4972181;28;20186;-71
2022/04/15 05:08:30;;;;;;;2.63;2.20;;;20.70;54.60;;;;;;4956084;28;20693;-71
2022/04/15 05:10:56;;;;;;;2.40;2.22;;;20.70;54.60;;;;;;4960645;28;20193;-71
2022/04/15 05:13:21;;;;;;;2.28;2.10;;;20.60;54.60;;;;;;4983575;28;20184;-71
2022/04/15 05:15:47;;;;;;;2.20;2.08;;;20.70;54.70;;;;;;5007692;28;20195;-71
2022/04/15 05:18:14;;;;;;;2.63;2.30;;;20.60;54.60;;;;;;4991655;28;20184;-69
2022/04/15 05:20:40;;;;;;;2.50;2.30;;;20.70;54.60;;;;;;5007827;28;20189;-69
2022/04/15 05:23:06;;;;;;;2.55;2.35;;;20.70;54.60;;;;;;5007912;28;20203;-69
2022/04/15 05:25:31;;;;;;;2.38;2.17;;;20.60;54.60;;;;;;4991270;28;20189;-69
2022/04/15 05:27:58;;;;;;;2.65;2.08;;;20.70;54.60;;;;;;5008018;28;20215;-69
2022/04/15 05:30:25;;;;;;;2.80;2.40;;;20.60;54.60;;;;;;5007735;28;20233;-69
2022/04/15 05:32:51;;;;;;;2.75;2.15;;;20.70;54.70;;;;;;4990564;28;20272;-69
2022/04/15 05:35:17;;;;;;;2.30;2.10;;;20.70;54.60;;;;;;4973254;28;20321;-69
2022/04/15 05:37:43;;;;;;;2.40;2.20;;;20.60;54.60;;;;;;4988245;28;20733;-69
2022/04/15 05:40:09;;;;;;;2.30;2.13;;;20.60;54.60;;;;;;4988126;28;20300;-69
2022/04/15 05:42:35;;;;;;;2.53;2.33;;;20.60;54.60;;;;;;4986462;28;20177;-69
2022/04/15 05:45:00;;;;;;;2.47;2.28;;;20.60;54.60;;;;;;4988033;28;20201;-69
2022/04/15 05:47:26;;;;;;;2.58;2.38;;;20.70;54.70;;;;;;4988154;28;20256;-69
2022/04/15 05:49:52;;;;;;;2.58;2.28;;;20.70;54.70;;;;;;4987959;28;20224;-69
2022/04/15 05:52:18;;;;;;;2.50;2.30;;;20.70;54.70;;;;;;4990676;28;20193;-69
2022/04/15 05:54:44;;;;;;;2.55;2.35;;;20.70;54.70;;;;;;4975361;28;20196;-70
2022/04/15 05:57:09;;;;;;;2.35;2.15;;;20.60;54.60;;;;;;4976451;28;20190;-69
2022/04/15 05:59:35;;;;;;;2.53;2.33;;;20.60;54.60;;;;;;4991606;28;20213;-70
2022/04/15 06:02:01;;;;;;;2.35;2.15;;;20.70;54.60;;;;;;4991545;28;20793;-69
2022/04/15 06:04:27;;;;;;;2.20;1.80;;;20.70;54.60;;;;;;4991427;28;20221;-69
2022/04/15 06:06:53;;;;;;;1.95;1.85;;;20.60;54.50;;;;;;4991677;28;20217;-69
2022/04/15 06:09:19;;;;;;;2.05;1.85;;;20.60;54.50;;;;;;4976034;28;20197;-69
2022/04/15 06:11:44;;;;;;;2.00;1.90;;;20.70;54.60;;;;;;4982957;28;20207;-69
2022/04/15 06:14:10;;;;;;;2.10;2.00;;;20.70;54.60;;;;;;5003917;28;20204;-69
2022/04/15 06:16:42;;;;;;;2.03;1.92;;;20.70;54.50;;;;;;5010946;28;20196;-69
2022/04/15 06:19:08;;;;;;;2.58;1.90;;;20.70;54.50;;;;;;5010650;28;20579;-69
2022/04/15 06:21:34;;;;;;;2.38;2.17;;;20.70;54.50;;;;;;4994222;28;20184;-69
2022/04/15 06:23:59;;;;;;;2.35;2.15;;;20.70;54.50;;;;;;4978291;28;20184;-69
2022/04/15 06:26:25;;;;;;;2.38;2.08;;;20.70;54.50;;;;;;4977920;28;20696;-69
2022/04/15 06:28:51;;;;;;;1.95;1.83;;;20.70;54.50;;;;;;5010225;28;20275;-69
2022/04/15 06:31:17;;;;;;;2.50;2.30;;;20.70;54.50;;;;;;5010621;28;20180;-69
2022/04/15 06:33:43;;;;;;;1.90;1.80;;;20.70;54.50;;;;;;4992536;28;20192;-69
2022/04/15 06:36:08;;;;;;;3.67;2.17;;;20.70;54.50;;;;;;4980032;28;20185;-69
2022/04/15 06:38:34;;;;;;;2.30;2.10;;;20.70;54.50;;;;;;5009636;28;20208;-68
2022/04/15 06:41:00;;;;;;;3.05;2.70;;;20.70;54.50;;;;;;4958149;28;20185;-69
2022/04/15 06:43:26;;;;;;;2.38;2.17;;;20.70;54.50;;;;;;4982393;28;20213;-69
2022/04/15 06:45:52;;;;;;;2.50;2.30;;;20.70;54.50;;;;;;4990333;28;20284;-69
2022/04/15 06:48:18;;;;;;;2.55;2.35;;;20.70;54.50;;;;;;4990240;28;20208;-69
2022/04/15 06:50:44;;;;;;;2.53;2.33;;;20.70;54.60;;;;;;4999544;28;20185;-69
2022/04/15 06:53:11;;;;;;;2.22;2.03;;;20.70;54.60;;;;;;4993735;28;20251;-69
2022/04/15 06:55:38;;;;;;;3.38;2.00;;;20.70;54.60;;;;;;5010188;28;20189;-69
2022/04/15 06:58:04;;;;;;;2.22;1.92;;;20.70;54.60;;;;;;5006010;28;20587;-69
2022/04/15 07:00:30;;;;;;;2.10;2.00;;;20.70;54.60;;;;;;5005888;28;20212;-69
2022/04/15 07:02:56;;;;;;;1.98;1.88;;;20.70;54.50;;;;;;5008971;28;20185;-69
2022/04/15 07:05:23;;;;;;;2.20;1.65;;;20.70;54.50;;;;;;4993514;28;20660;-70
2022/04/15 07:07:49;;;;;;;2.13;1.92;;;20.70;54.60;;;;;;4982976;28;20221;-69
2022/04/15 07:10:15;;;;;;;2.05;1.95;;;20.70;54.50;;;;;;4957607;28;20212;-69
2022/04/15 07:12:41;;;;;;;1.98;1.85;;;20.70;54.50;;;;;;4998719;28;20188;-69
2022/04/15 07:15:08;;;;;;;1.65;1.55;;;20.70;54.50;;;;;;4994475;28;20591;-69
2022/04/15 07:17:34;;;;;;;1.90;1.80;;;20.70;54.50;;;;;;5009519;28;20211;-70
2022/04/15 07:19:59;;;;;;;2.10;2.00;;;20.80;54.60;;;;;;5009445;28;20212;-69
2022/04/15 07:22:25;;;;;;;2.28;2.08;;;20.70;54.50;;;;;;4994531;28;20197;-69
2022/04/15 07:24:51;;;;;;;2.05;1.70;;;20.70;54.60;;;;;;4989918;28;20217;-69
2022/04/15 07:27:17;;;;;;;1.80;1.70;;;20.80;54.60;;;;;;4989742;28;20212;-68
2022/04/15 07:29:44;;;;;;;1.90;1.80;;;20.80;54.60;;;;;;4974659;28;20208;-69
2022/04/15 07:32:10;;;;;;;1.73;1.63;;;20.80;54.50;;;;;;4990660;28;20206;-69
2022/04/15 07:34:36;;;;;;;2.13;1.90;;;20.70;54.50;;;;;;4990773;28;20665;-69
2022/04/15 07:37:03;;;;;;;1.88;1.70;;;20.80;54.60;;;;;;4974719;28;20189;-69
2022/04/15 07:39:30;;;;;;;1.70;1.60;;;20.70;54.50;;;;;;4987990;28;20205;-69
2022/04/15 07:41:55;;;;;;;2.47;1.70;;;20.80;54.50;;;;;;4968374;28;20315;-69
2022/04/15 07:44:21;;;;;;;2.20;1.67;;;20.80;54.50;;;;;;4981802;28;20276;-69
2022/04/15 07:46:48;;;;;;;2.53;1.88;;;20.80;54.50;;;;;;5009352;28;20267;-71
2022/04/15 07:49:15;;;;;;;1.80;1.70;;;20.80;54.50;;;;;;5008824;28;20253;-71
2022/04/15 07:51:41;;;;;;;2.05;1.70;;;20.80;54.50;;;;;;5009275;28;20208;-72
2022/04/15 07:54:08;;;;;;;1.83;1.73;;;20.80;54.50;;;;;;4992505;28;20188;-71
2022/04/15 07:56:35;;;;;;;1.60;1.50;;;20.80;54.40;;;;;;4992817;28;20193;-71
2022/04/15 07:59:03;;;;;;;1.70;1.60;;;20.80;54.40;;;;;;5008867;28;20205;-72
2022/04/15 08:01:29;;;;;;;1.90;1.70;;;20.80;54.40;;;;;;5002307;28;20240;-71
2022/04/15 08:03:56;;;;;;;2.47;1.92;;;20.80;54.30;;;;;;4981223;28;20186;-71
2022/04/15 08:06:25;;;;;;;2.45;1.80;;;20.80;54.30;;;;;;4973261;28;20196;-72
2022/04/15 08:08:55;;;;;;;1.90;1.80;;;20.90;54.40;;;;;;5002183;28;20229;-72
2022/04/15 08:11:25;;;;;;;1.88;1.77;;;20.90;54.40;;;;;;5003041;28;20184;-72
2022/04/15 08:13:52;;;;;;;1.63;1.52;;;20.90;54.40;;;;;;5000313;28;20271;-72
2022/04/15 08:16:18;;;;;;;2.05;1.77;;;20.90;54.30;;;;;;4992210;28;20268;-73
2022/04/15 08:18:44;;;;;;;1.90;1.50;;;21.00;54.40;;;;;;5008470;28;20208;-70
2022/04/15 08:21:10;;;;;;;2.08;1.60;;;21.00;54.40;;;;;;4987715;28;20192;-72
2022/04/15 08:23:36;;;;;;;2.35;1.63;;;21.00;54.40;;;;;;4994882;28;20185;-72
2022/04/15 08:26:02;;;;;;;1.90;1.67;;;21.00;54.40;;;;;;4996129;28;20276;-72
2022/04/15 08:28:28;;;;;;;1.92;1.83;;;21.10;54.40;;;;;;4964999;28;20213;-71
2022/04/15 08:30:54;;;;;;;1.52;1.40;;;21.00;54.30;;;;;;4975708;28;20196;-73
2022/04/15 08:33:20;;;;;;;2.03;1.80;;;21.00;54.30;;;;;;4975903;28;20200;-72
2022/04/15 08:35:47;;;;;;;2.65;1.50;;;21.00;54.30;;;;;;4984107;28;20177;-72
2022/04/15 08:38:13;;;;;;;2.35;1.65;;;21.10;54.50;;;;;;4975735;28;20185;-72
2022/04/15 08:40:47;;;;;;;3.25;1.50;;;21.10;54.40;;;;;;4991720;28;20444;-72
2022/04/15 08:43:13;;;;;;;2.28;1.75;;;21.10;54.40;;;;;;5000222;28;20655;-72
2022/04/15 08:45:41;;;;;;;1.67;1.58;;;21.10;54.40;;;;;;4975544;28;20193;-72
2022/04/15 08:48:09;;;;;;;1.70;1.60;;;21.10;54.40;;;;;;5008064;28;20216;-72
2022/04/15 08:50:35;;;;;;;2.28;1.60;;;21.10;54.40;;;;;;5007786;28;20189;-73
2022/04/15 08:53:02;;;;;;;2.05;1.85;;;21.10;54.40;;;;;;4975770;28;20287;-72
2022/04/15 08:55:29;;;;;;;2.05;1.80;;;21.10;54.40;;;;;;4991798;28;20188;-74
2022/04/15 08:57:57;;;;;;;1.90;1.80;;;21.10;54.50;;;;;;4991787;28;20188;-72
2022/04/15 09:00:25;;;;;;;2.78;1.58;;;21.10;54.50;;;;;;4991761;28;20204;-72
2022/04/15 09:02:53;;;;;;;2.00;1.90;;;21.10;54.40;;;;;;5008387;28;20195;-72
2022/04/15 09:05:22;;;;;;;1.70;1.60;;;21.10;54.40;;;;;;4993267;28;20194;-72
2022/04/15 09:07:48;;;;;;;1.70;1.60;;;21.20;54.40;;;;;;4988480;28;20218;-73
2022/04/15 09:10:18;;;;;;;2.42;2.08;;;21.20;54.50;;;;;;4988529;28;20214;-73
2022/04/15 09:12:46;;;;;;;2.08;1.88;;;21.20;54.80;;;;;;4981212;28;20185;-73
2022/04/15 09:15:13;;;;;;;2.75;1.92;;;21.20;54.60;;;;;;4991889;28;20232;-73
2022/04/15 09:17:46;;;;;;;2.38;1.73;;;21.20;54.80;;;;;;5008136;28;20275;-72
2022/04/15 09:20:12;;;;;;;2.25;2.05;;;21.10;54.90;;;;;;5007868;28;20220;-72
2022/04/15 09:22:38;;;;;;;2.03;1.83;;;21.10;54.90;;;;;;4991407;28;20216;-73
2022/04/15 09:25:06;;;;;;;1.70;1.58;;;21.10;54.90;;;;;;5007863;28;20216;-72
2022/04/15 09:27:35;;;;;;;1.73;1.63;;;21.10;55.00;;;;;;5011014;28;20217;-73
2022/04/15 09:30:04;;;;;;;1.60;1.50;;;21.10;55.00;;;;;;5011402;28;20721;-73
2022/04/15 09:32:30;;;;;;;1.65;1.55;;;21.20;55.00;;;;;;5011784;28;20191;-73
2022/04/15 09:35:08;;;;;;;2.63;1.88;;;21.20;55.00;;;;;;5011578;28;20185;-73
2022/04/15 09:37:44;;;;;;;2.53;1.73;;;21.20;54.80;;;;;;5010922;28;20581;-74
2022/04/15 09:40:16;;;;;;;2.10;1.90;;;21.20;54.80;;;;;;4995037;28;20213;-72
2022/04/15 09:42:51;;;;;;;2.92;1.80;;;21.20;54.80;;;;;;4984093;28;20198;-73
2022/04/15 09:45:30;;;;;;;2.40;2.00;;;21.20;54.80;;;;;;4998051;28;20284;-73
2022/04/15 09:47:59;;;;;;;2.33;1.70;;;21.20;54.90;;;;;;4992005;28;20643;-72
2022/04/15 09:50:37;;;;;;;1.75;1.65;;;21.10;55.20;;;;;;5032435;22;20259;-70
2022/04/15 09:53:09;;;;;;;1.80;1.70;;;21.20;55.30;;;;;;5013649;28;20694;-70
2022/04/15 09:55:38;;;;;;;2.78;1.73;;;21.20;55.00;;;;;;4981398;28;20275;-71
2022/04/15 09:58:11;;;;;;;2.92;1.92;;;21.20;55.20;;;;;;5029999;28;20223;-70
2022/04/15 10:00:41;;;;;;;2.00;1.77;;;21.20;55.00;;;;;;5014939;28;20200;-70
2022/04/15 10:03:14;;;;;;;2.15;1.70;;;21.20;55.00;;;;;;4997351;28;20616;-71
2022/04/15 10:05:41;;;;;;;3.17;1.95;;;21.20;55.10;;;;;;5014336;28;20231;-71
2022/04/15 10:08:10;;;;;;;2.03;1.67;;;21.20;54.80;;;;;;5014265;28;20258;-72
2022/04/15 10:10:37;;;;;;;1.75;1.63;;;21.20;54.90;;;;;;4994580;28;20215;-72
2022/04/15 10:13:06;;;;;;;2.10;1.80;;;21.20;55.20;;;;;;5006270;28;20600;-70
2022/04/15 10:15:36;;;;;;;4.53;2.00;;;21.20;54.80;;;;;;5015561;28;20337;-71
2022/04/15 10:18:03;;;;;;;1.60;1.50;;;21.20;55.20;;;;;;5016261;28;20187;-70
2022/04/15 10:20:31;;;;;;;3.85;1.80;;;21.20;55.40;;;;;;5031780;28;20299;-71
2022/04/15 10:23:05;;;;;;;1.80;1.70;;;21.20;55.40;;;;;;5013225;28;20199;-70
2022/04/15 10:25:33;;;;;;;1.63;1.52;;;21.20;55.30;;;;;;4996753;28;20188;-71
2022/04/15 10:28:11;;;;;;;1.83;1.67;;;21.20;55.40;;;;;;4996274;28;20270;-71
2022/04/15 10:30:38;;;;;;;3.15;1.88;;;21.20;55.00;;;;;;5014181;28;20215;-70
2022/04/15 10:33:04;;;;;;;1.92;1.70;;;21.20;54.90;;;;;;5014794;28;20192;-70
2022/04/15 10:35:33;;;;;;;3.00;1.65;;;21.20;55.00;;;;;;5015275;28;20234;-71
2022/04/15 10:38:01;;;;;;;1.67;1.58;;;21.20;55.10;;;;;;5013561;28;20192;-70
2022/04/15 10:40:33;;;;;;;2.92;1.75;;;21.20;55.00;;;;;;5031402;28;20210;-71
2022/04/15 10:43:21;;;;;;;2.78;1.85;;;21.20;55.30;;;;;;4982163;28;20188;-71
2022/04/15 10:45:51;;;;;;;1.80;1.65;;;21.20;55.40;;;;;;5016282;28;20177;-71
2022/04/15 10:48:30;;;;;;;2.00;1.85;;;21.20;55.40;;;;;;5005181;28;20212;-71
2022/04/15 10:50:56;;;;;;;1.90;1.80;;;21.20;55.20;;;;;;4995828;28;20220;-71
2022/04/15 10:53:24;;;;;;;3.83;1.90;;;21.20;55.20;;;;;;4997026;28;20207;-71
2022/04/15 10:55:53;;;;;;;3.53;2.03;;;21.20;55.30;;;;;;4995018;28;20259;-72
2022/04/15 10:58:21;;;;;;;2.28;1.80;;;21.30;55.60;;;;;;4978187;28;20246;-72
2022/04/15 11:01:21;;;;;;;1.90;1.60;;;21.30;55.30;;;;;;5002990;28;20223;-72
2022/04/15 11:04:01;;;;;;;2.50;1.80;;;21.20;55.10;;;;;;4994430;28;20196;-70
2022/04/15 11:06:28;;;;;;;3.45;1.92;;;21.30;55.30;;;;;;4993852;28;20195;-71
2022/04/15 11:08:55;;;;;;;2.17;1.85;;;21.30;55.30;;;;;;4994056;28;20193;-71
2022/04/15 11:11:35;;;;;;;3.30;1.98;;;21.20;55.00;;;;;;5013858;28;20192;-71
2022/04/15 11:14:06;;;;;;;2.00;1.80;;;21.30;55.00;;;;;;5007376;28;20207;-71
2022/04/15 11:16:42;;;;;;;4.47;1.73;;;21.30;55.20;;;;;;5013894;28;20190;-71
2022/04/15 11:19:11;;;;;;;4.60;2.38;;;21.30;55.10;;;;;;5012808;28;20203;-71
2022/04/15 11:21:39;;;;;;;2.05;1.90;;;21.30;55.30;;;;;;5029603;28;20183;-71
2022/04/15 11:24:13;;;;;;;3.53;2.10;;;21.30;55.00;;;;;;5013110;28;20199;-71
2022/04/15 11:26:43;;;;;;;2.85;2.10;;;21.30;55.00;;;;;;5014414;28;20630;-71
2022/04/15 11:29:16;;;;;;;2.72;2.08;;;21.30;55.00;;;;;;4997833;28;20212;-71
2022/04/15 11:31:46;;;;;;;2.95;2.25;;;21.30;55.00;;;;;;5013127;28;20208;-71
2022/04/15 11:34:17;;;;;;;4.35;2.45;;;21.30;55.00;;;;;;5013129;28;20245;-72
2022/04/15 11:36:46;;;;;;;2.67;2.38;;;21.30;55.00;;;;;;5013129;28;20184;-71
2022/04/15 11:39:21;;;;;;;2.25;2.00;;;21.30;55.20;;;;;;5029555;28;20199;-71
2022/04/15 11:41:50;;;;;;;2.38;2.08;;;21.30;55.20;;;;;;5010627;28;20189;-72
2022/04/15 11:44:17;;;;;;;2.80;2.22;;;21.30;55.00;;;;;;5024885;28;20180;-71
2022/04/15 11:46:51;;;;;;;2.40;2.20;;;21.30;55.20;;;;;;5022097;28;20179;-71
2022/04/15 11:49:27;;;;;;;2.90;2.20;;;21.30;55.40;;;;;;5038874;28;20219;-71
2022/04/15 11:51:55;;;;;;;2.20;2.00;;;21.30;55.20;;;;;;5011953;28;20274;-71
2022/04/15 11:54:32;;;;;;;3.63;2.00;;;21.30;55.20;;;;;;5028885;28;20184;-72
2022/04/15 11:57:03;;;;;;;2.53;2.33;;;21.30;55.10;;;;;;4980467;28;20184;-71
2022/04/15 11:59:43;;;;;;;3.45;2.45;;;21.30;55.30;;;;;;4992958;28;20216;-71
2022/04/15 12:02:12;;;;;;;2.70;2.20;;;21.20;55.00;;;;;;5009225;28;20185;-71
2022/04/15 12:04:58;;;;;;;4.32;2.72;;;21.30;54.90;;;;;;4993093;28;20200;-71
2022/04/15 12:07:26;;;;;;;2.97;2.53;;;21.20;54.70;;;;;;5009380;28;20254;-71
2022/04/15 12:09:53;;;;;;;3.65;3.03;;;21.30;54.70;;;;;;5002928;28;20208;-71
2022/04/15 12:12:21;;;;;;;3.28;2.90;;;21.30;54.50;;;;;;5012029;28;20236;-71
2022/04/15 12:14:50;;;;;;;2.80;2.60;;;21.30;54.50;;;;;;5011494;28;20203;-71
2022/04/15 12:17:17;;;;;;;2.83;2.53;;;21.30;54.50;;;;;;5011858;28;20179;-71
2022/04/15 12:19:43;;;;;;;2.72;2.00;;;21.30;54.40;;;;;;5012476;28;20211;-71
2022/04/15 12:22:09;;;;;;;4.22;2.20;;;21.30;54.60;;;;;;5000805;28;20188;-72
2022/04/15 12:24:36;;;;;;;2.60;2.10;;;21.30;54.40;;;;;;5025874;28;20202;-72
2022/04/15 12:27:02;;;;;;;3.95;2.67;;;21.30;54.50;;;;;;4995372;28;20254;-72
2022/04/15 12:29:48;;;;;;;4.20;2.55;;;21.30;54.30;;;;;;5002212;28;20208;-72
2022/04/15 12:32:34;;;;;;;2.83;2.60;;;21.30;54.40;;;;;;5008558;28;20197;-72
2022/04/15 12:34:59;;;;;;;2.90;2.63;;;21.30;54.30;;;;;;5009232;28;20181;-72
2022/04/15 12:37:50;;;;;;;2.75;2.53;;;21.20;54.20;;;;;;4975846;28;20200;-72
2022/04/15 12:40:17;;;;;;;3.03;2.08;;;21.30;54.50;;;;;;5004321;28;20351;-73
2022/04/15 12:42:46;;;;;;;2.95;2.60;;;21.30;54.40;;;;;;4995755;28;20192;-72
2022/04/15 12:45:19;;;;;;;3.65;2.60;;;21.20;54.10;;;;;;4993489;28;20177;-72
2022/04/15 12:48:02;;;;;;;4.20;2.70;;;21.20;54.10;;;;;;5016909;28;20212;-73
2022/04/15 12:50:36;;;;;;;2.88;2.67;;;21.30;54.10;;;;;;5032724;28;20220;-72
2022/04/15 12:53:17;;;;;;;3.47;2.55;;;21.30;54.20;;;;;;5011937;28;20191;-72